Time;durP1;ratioP1;P1;durP2;ratioP2;P2;SDS_P1;SDS_P2;PMS_P1;PMS_P2;Temp;Humidity;BMP_temperature;BMP_pressure;BME280_temperature;BME280_humidity;BME280_pressure;Samples;Min_cycle;Max_cycle;Signal;HPM_P1;HPM_P2
2023/03/21 00:02:08;;;;;;;3.65;0.88;;;20.40;99.90;;;;;;5074183;28;20189;-77
2023/03/21 00:04:39;;;;;;;7.53;0.95;;;20.50;99.90;;;;;;5068247;28;20246;-77
2023/03/21 00:07:10;;;;;;;6.05;1.10;;;20.50;99.90;;;;;;5074724;28;20243;-76
2023/03/21 00:09:41;;;;;;;4.32;0.98;;;20.50;99.90;;;;;;5074800;28;20189;-77
2023/03/21 00:12:13;;;;;;;5.30;1.10;;;20.50;99.90;;;;;;5074760;28;20190;-77
2023/03/21 00:14:44;;;;;;;7.60;1.20;;;20.50;99.90;;;;;;5073948;28;20213;-77
2023/03/21 00:17:17;;;;;;;3.95;0.70;;;20.60;99.90;;;;;;5074849;28;20204;-77
2023/03/21 00:19:48;;;;;;;8.45;1.02;;;20.60;99.90;;;;;;5074809;28;20204;-77
2023/03/21 00:22:19;;;;;;;5.55;1.05;;;20.70;99.90;;;;;;5074745;28;20189;-77
2023/03/21 00:24:51;;;;;;;5.55;1.20;;;20.70;99.90;;;;;;5072600;28;20189;-78
2023/03/21 00:27:22;;;;;;;8.40;1.40;;;20.70;99.90;;;;;;5074612;28;20193;-77
2023/03/21 00:29:53;;;;;;;6.45;1.15;;;20.70;99.90;;;;;;5074620;28;20197;-78
2023/03/21 00:32:26;;;;;;;8.90;1.00;;;20.70;99.90;;;;;;5061881;28;20201;-77
2023/03/21 00:34:57;;;;;;;7.40;1.10;;;20.70;99.90;;;;;;5073581;28;20213;-76
2023/03/21 00:37:28;;;;;;;8.23;1.33;;;20.80;99.90;;;;;;5060739;28;20684;-77
2023/03/21 00:39:59;;;;;;;6.65;1.20;;;20.90;99.90;;;;;;5069670;28;20568;-77
2023/03/21 00:42:30;;;;;;;11.18;1.50;;;20.90;99.90;;;;;;5064901;28;20204;-78
2023/03/21 00:45:01;;;;;;;9.25;1.10;;;20.90;99.90;;;;;;5071613;28;20201;-76
2023/03/21 00:47:34;;;;;;;6.25;1.15;;;20.90;99.90;;;;;;5073599;28;20181;-76
2023/03/21 00:50:06;;;;;;;10.10;1.77;;;20.90;99.90;;;;;;5074154;28;20189;-76
2023/03/21 00:52:37;;;;;;;6.38;1.25;;;20.90;99.90;;;;;;5074139;28;20235;-76
2023/03/21 00:55:10;;;;;;;5.57;1.00;;;20.90;99.90;;;;;;5072239;28;20205;-77
2023/03/21 00:57:41;;;;;;;9.07;1.38;;;20.90;99.90;;;;;;5074161;28;20188;-76
2023/03/21 01:00:15;;;;;;;8.35;1.30;;;20.90;99.90;;;;;;5073823;28;20215;-77
2023/03/21 01:02:57;;;;;;;6.05;0.95;;;20.90;99.90;;;;;;5073868;28;20225;-76
2023/03/21 01:08:15;;;;;;;9.27;1.40;;;21.00;99.90;;;;;;5052840;28;20197;-79
2023/03/21 01:10:48;;;;;;;7.28;1.05;;;21.10;99.90;;;;;;5053807;28;20197;-76
2023/03/21 01:13:20;;;;;;;7.18;1.10;;;21.10;99.90;;;;;;5068293;28;20656;-76
2023/03/21 01:15:52;;;;;;;9.15;1.38;;;21.20;99.90;;;;;;5055440;28;20217;-76
2023/03/21 01:18:27;;;;;;;9.90;1.35;;;21.20;99.90;;;;;;5073630;28;20185;-76
2023/03/21 01:20:59;;;;;;;7.63;1.00;;;21.30;99.90;;;;;;5073397;28;20196;-77
2023/03/21 01:23:31;;;;;;;8.05;1.30;;;21.30;99.90;;;;;;5073623;28;20189;-76
2023/03/21 01:26:02;;;;;;;6.55;1.02;;;21.40;99.90;;;;;;5069834;28;20549;-76
2023/03/21 01:28:33;;;;;;;8.82;1.40;;;21.40;99.90;;;;;;5065803;28;20636;-77
2023/03/21 01:31:05;;;;;;;10.15;1.38;;;21.40;99.90;;;;;;5073529;28;20189;-77
2023/03/21 01:33:38;;;;;;;8.52;1.10;;;21.50;99.90;;;;;;5073403;28;20193;-77
2023/03/21 01:36:11;;;;;;;6.10;1.17;;;21.50;99.90;;;;;;5073123;28;20224;-76
2023/03/21 01:38:42;;;;;;;5.97;1.25;;;21.50;99.90;;;;;;5071584;28;20315;-76
2023/03/21 01:41:29;;;;;;;10.95;1.10;;;21.60;99.90;;;;;;5073140;28;20193;-76
2023/03/21 01:44:00;;;;;;;11.55;1.45;;;21.60;99.90;;;;;;5073420;28;20201;-76
2023/03/21 01:46:43;;;;;;;5.78;1.20;;;21.60;99.90;;;;;;5071667;28;20196;-76
2023/03/21 01:49:25;;;;;;;8.05;1.48;;;21.60;99.90;;;;;;5073167;28;20193;-78
2023/03/21 01:51:59;;;;;;;6.85;1.05;;;21.60;99.90;;;;;;5069311;28;20200;-78
2023/03/21 01:54:34;;;;;;;6.45;1.27;;;21.50;99.90;;;;;;5071573;28;20659;-77
2023/03/21 01:57:09;;;;;;;7.72;1.38;;;21.50;99.90;;;;;;5053112;28;20703;-78
2023/03/21 01:59:45;;;;;;;11.07;1.63;;;21.50;99.90;;;;;;5053314;28;20698;-77
2023/03/21 02:02:19;;;;;;;9.75;1.40;;;21.50;99.90;;;;;;5053210;28;20679;-77
2023/03/21 02:04:56;;;;;;;6.13;1.00;;;21.50;99.90;;;;;;5054300;28;20591;-77
2023/03/21 02:07:33;;;;;;;8.23;1.33;;;21.50;99.90;;;;;;5052443;28;20726;-77
2023/03/21 02:10:08;;;;;;;8.60;1.58;;;21.40;99.90;;;;;;5053264;28;20597;-78
2023/03/21 02:12:39;;;;;;;10.00;1.40;;;21.40;99.90;;;;;;5061515;28;20193;-77
2023/03/21 02:15:12;;;;;;;7.38;1.42;;;21.40;99.90;;;;;;5076173;28;20201;-78
2023/03/21 02:17:46;;;;;;;8.75;1.17;;;21.40;99.90;;;;;;5068729;28;20220;-77
2023/03/21 02:20:45;;;;;;;8.63;1.30;;;21.40;99.90;;;;;;5076755;28;20195;-77
2023/03/21 02:23:49;;;;;;;11.45;1.45;;;21.40;99.90;;;;;;5057733;28;20657;-76
2023/03/21 02:27:03;;;;;;;6.88;1.27;;;21.40;99.90;;;;;;5056857;28;20201;-77
2023/03/21 02:29:56;;;;;;;9.77;1.77;;;21.40;99.90;;;;;;5055143;28;20653;-77
2023/03/21 02:32:43;;;;;;;6.88;1.20;;;21.40;99.90;;;;;;5066759;28;20189;-75
2023/03/21 02:35:48;;;;;;;6.82;1.63;;;21.40;99.90;;;;;;5075733;28;20638;-76
2023/03/21 02:38:27;;;;;;;7.07;1.10;;;21.40;99.90;;;;;;5076267;28;20224;-77
2023/03/21 02:41:06;;;;;;;9.13;1.15;;;21.50;99.90;;;;;;5075846;28;20239;-75
2023/03/21 02:43:45;;;;;;;10.00;1.40;;;21.60;99.90;;;;;;5062953;28;20277;-77
2023/03/21 02:46:20;;;;;;;8.52;1.20;;;21.70;99.90;;;;;;5056624;28;20193;-76
2023/03/21 02:48:57;;;;;;;8.52;1.20;;;21.70;99.90;;;;;;5061494;28;20189;-77
2023/03/21 02:51:32;;;;;;;8.40;1.52;;;21.70;99.90;;;;;;5061481;28;20189;-76
2023/03/21 02:54:09;;;;;;;6.50;1.10;;;21.70;99.90;;;;;;5073096;28;20200;-76
2023/03/21 02:56:41;;;;;;;10.55;1.30;;;21.70;99.90;;;;;;5072265;28;20212;-76
2023/03/21 02:59:14;;;;;;;6.97;1.08;;;21.80;99.90;;;;;;5076351;28;20260;-76
2023/03/21 03:01:45;;;;;;;7.07;1.27;;;21.80;99.90;;;;;;5076099;28;20565;-76
2023/03/21 03:04:23;;;;;;;10.82;1.30;;;21.90;99.90;;;;;;5066289;28;20208;-76
2023/03/21 03:07:14;;;;;;;10.50;1.75;;;22.00;99.90;;;;;;5056691;28;20201;-77
2023/03/21 03:10:03;;;;;;;11.77;1.10;;;22.10;99.90;;;;;;5055937;28;20197;-78
2023/03/21 03:12:40;;;;;;;7.22;1.13;;;22.20;99.90;;;;;;5055699;28;20255;-78
2023/03/21 03:15:20;;;;;;;5.00;1.30;;;22.30;99.90;;;;;;5055819;28;20193;-78
2023/03/21 03:17:58;;;;;;;6.70;1.10;;;22.60;99.90;;;;;;5055916;28;20186;-77
2023/03/21 03:20:38;;;;;;;7.28;0.90;;;22.70;99.90;;;;;;5055654;28;20196;-78
2023/03/21 03:23:20;;;;;;;6.25;1.08;;;22.80;99.90;;;;;;5057164;28;20653;-77
2023/03/21 03:25:58;;;;;;;10.15;1.30;;;22.80;99.90;;;;;;5055909;28;20562;-77
2023/03/21 03:28:37;;;;;;;5.70;1.20;;;22.80;99.90;;;;;;5059662;28;20205;-76
2023/03/21 03:31:11;;;;;;;10.77;2.03;;;22.90;99.90;;;;;;5055438;28;20204;-77
2023/03/21 03:33:45;;;;;;;9.55;1.35;;;22.90;99.90;;;;;;5059157;28;20204;-76
2023/03/21 03:36:19;;;;;;;11.65;1.08;;;22.90;99.90;;;;;;5055836;28;20225;-76
2023/03/21 03:38:52;;;;;;;7.10;1.25;;;22.80;99.90;;;;;;5063531;28;20237;-77
2023/03/21 03:41:28;;;;;;;5.57;0.88;;;22.70;99.90;;;;;;5056049;28;20198;-77
2023/03/21 03:44:02;;;;;;;8.30;1.20;;;22.70;99.90;;;;;;5062249;28;20197;-76
2023/03/21 03:46:38;;;;;;;5.70;1.00;;;22.60;99.90;;;;;;5074365;28;20195;-76
2023/03/21 03:49:14;;;;;;;9.82;1.45;;;22.50;99.90;;;;;;5072273;28;20197;-77
2023/03/21 03:51:54;;;;;;;6.55;1.20;;;22.40;99.90;;;;;;5069369;28;20194;-76
2023/03/21 03:54:29;;;;;;;4.70;1.00;;;22.40;99.90;;;;;;5071870;28;20561;-76
2023/03/21 03:57:03;;;;;;;9.98;1.42;;;22.30;99.90;;;;;;5073787;28;20219;-77
2023/03/21 03:59:36;;;;;;;5.18;1.25;;;22.30;99.90;;;;;;5062557;28;20181;-76
2023/03/21 04:02:07;;;;;;;6.82;1.10;;;22.20;99.90;;;;;;5071924;28;20258;-77
2023/03/21 04:04:40;;;;;;;4.75;1.10;;;22.20;99.90;;;;;;5063731;28;20561;-77
2023/03/21 04:07:11;;;;;;;6.43;1.17;;;22.20;99.90;;;;;;5062088;28;20201;-77
2023/03/21 04:09:42;;;;;;;7.50;1.00;;;22.10;99.90;;;;;;5058082;28;20206;-76
2023/03/21 04:12:17;;;;;;;7.22;1.10;;;22.10;99.90;;;;;;5058250;28;20265;-76
2023/03/21 04:14:48;;;;;;;8.43;1.20;;;22.00;99.90;;;;;;5066600;28;20197;-77
2023/03/21 04:17:20;;;;;;;8.90;1.42;;;22.00;99.90;;;;;;5070984;28;20212;-76
2023/03/21 04:19:51;;;;;;;6.03;1.20;;;22.00;99.90;;;;;;5054395;28;20560;-77
2023/03/21 04:22:22;;;;;;;5.40;1.20;;;22.00;99.90;;;;;;5059741;28;20665;-77
2023/03/21 04:24:53;;;;;;;9.85;1.50;;;22.00;99.90;;;;;;5054473;28;20672;-77
2023/03/21 04:27:26;;;;;;;9.32;1.30;;;22.00;99.90;;;;;;5054626;28;20572;-76
2023/03/21 04:29:57;;;;;;;7.15;1.33;;;21.90;99.90;;;;;;5053529;28;20661;-76
2023/03/21 04:32:32;;;;;;;9.70;1.52;;;21.90;99.90;;;;;;5067627;28;20201;-76
2023/03/21 04:35:05;;;;;;;8.55;1.52;;;21.90;99.90;;;;;;5067770;28;20204;-76
2023/03/21 04:37:38;;;;;;;7.65;1.00;;;21.90;99.90;;;;;;5054094;28;20241;-77
2023/03/21 04:40:11;;;;;;;10.50;1.48;;;22.00;99.90;;;;;;5054175;28;20201;-76
2023/03/21 04:42:44;;;;;;;11.30;1.40;;;21.90;99.90;;;;;;5072171;28;20197;-78
2023/03/21 04:45:18;;;;;;;6.65;1.20;;;22.00;99.90;;;;;;5072279;28;20193;-77
2023/03/21 04:47:49;;;;;;;6.03;1.30;;;21.90;99.90;;;;;;5066611;28;20204;-77
2023/03/21 04:50:20;;;;;;;9.25;1.50;;;21.90;99.90;;;;;;5054046;28;20205;-77
2023/03/21 04:52:51;;;;;;;7.30;1.45;;;21.90;99.90;;;;;;5065423;28;20205;-77
2023/03/21 04:55:23;;;;;;;8.20;1.40;;;21.90;99.90;;;;;;5054315;28;20204;-77
2023/03/21 04:57:57;;;;;;;6.00;1.10;;;21.90;99.90;;;;;;5054214;28;20229;-76
2023/03/21 05:00:28;;;;;;;5.10;1.13;;;21.90;99.90;;;;;;5053435;28;20585;-76
2023/03/21 05:02:59;;;;;;;4.35;0.93;;;21.90;99.90;;;;;;5070511;28;20193;-76
2023/03/21 05:05:30;;;;;;;10.15;1.13;;;21.90;99.90;;;;;;5056930;28;20194;-76
2023/03/21 05:08:02;;;;;;;5.57;1.10;;;21.90;99.90;;;;;;5055561;28;20197;-76
2023/03/21 05:10:33;;;;;;;8.00;1.17;;;21.90;99.90;;;;;;5070037;28;20204;-78
2023/03/21 05:13:06;;;;;;;7.40;1.02;;;21.90;99.90;;;;;;5054368;28;20199;-76
2023/03/21 05:15:37;;;;;;;9.23;1.20;;;21.80;99.90;;;;;;5053677;28;20632;-78
2023/03/21 05:18:11;;;;;;;8.63;1.13;;;21.90;99.90;;;;;;5067275;28;20687;-76
2023/03/21 05:20:46;;;;;;;6.43;1.30;;;21.80;99.90;;;;;;5073680;28;20191;-77
2023/03/21 05:23:20;;;;;;;7.40;1.30;;;21.80;99.90;;;;;;5073713;28;20192;-76
2023/03/21 05:25:52;;;;;;;9.82;1.10;;;21.80;99.90;;;;;;5065709;28;20196;-77
2023/03/21 05:28:30;;;;;;;7.30;1.17;;;21.70;99.90;;;;;;5073484;28;20196;-78
2023/03/21 05:31:01;;;;;;;7.20;1.20;;;21.70;99.90;;;;;;5073451;28;20193;-77
2023/03/21 05:33:32;;;;;;;4.90;1.35;;;21.70;99.90;;;;;;5073565;28;20200;-78
2023/03/21 05:36:04;;;;;;;7.75;1.13;;;21.60;99.90;;;;;;5073146;28;20189;-77
2023/03/21 05:38:35;;;;;;;8.68;1.25;;;21.60;99.90;;;;;;5053269;28;20238;-78
2023/03/21 05:41:06;;;;;;;6.55;1.25;;;21.60;99.90;;;;;;5053536;28;20204;-77
2023/03/21 05:43:39;;;;;;;9.23;1.52;;;21.60;99.90;;;;;;5053445;28;20561;-77
2023/03/21 05:46:11;;;;;;;11.43;1.50;;;21.60;99.90;;;;;;5052836;28;20200;-79
2023/03/21 05:48:42;;;;;;;8.40;1.23;;;21.60;99.90;;;;;;5065400;28;20188;-78
2023/03/21 05:51:13;;;;;;;4.57;0.80;;;21.60;99.90;;;;;;5073369;28;20200;-77
2023/03/21 05:53:44;;;;;;;9.80;1.33;;;21.60;99.90;;;;;;5073626;28;20191;-77
2023/03/21 05:56:15;;;;;;;10.00;0.98;;;21.60;99.90;;;;;;5072304;28;20531;-77
2023/03/21 05:58:48;;;;;;;10.00;1.17;;;21.50;99.90;;;;;;5073554;28;20188;-77
2023/03/21 06:01:19;;;;;;;5.55;1.15;;;21.50;99.90;;;;;;5072289;28;20189;-77
2023/03/21 06:03:51;;;;;;;9.07;1.40;;;21.50;99.90;;;;;;5072988;28;20219;-77
2023/03/21 06:06:22;;;;;;;4.85;0.82;;;21.50;99.90;;;;;;5073237;28;20576;-77
2023/03/21 06:08:53;;;;;;;7.35;1.25;;;21.40;99.90;;;;;;5073107;28;20189;-77
2023/03/21 06:11:29;;;;;;;9.52;1.10;;;21.40;99.90;;;;;;5072953;28;20637;-78
2023/03/21 06:14:02;;;;;;;5.88;1.10;;;21.40;99.90;;;;;;5073115;28;20188;-77
2023/03/21 06:16:34;;;;;;;5.35;1.00;;;21.40;99.90;;;;;;5072998;28;20697;-77
2023/03/21 06:19:05;;;;;;;7.30;1.00;;;21.40;99.90;;;;;;5058121;28;20190;-78
2023/03/21 06:21:36;;;;;;;7.03;1.00;;;21.40;99.90;;;;;;5053019;28;20194;-77
2023/03/21 06:24:08;;;;;;;9.30;1.20;;;21.40;99.90;;;;;;5052973;28;20189;-77
2023/03/21 06:26:41;;;;;;;7.70;1.23;;;21.40;99.90;;;;;;5053630;28;20193;-78
2023/03/21 06:29:14;;;;;;;7.80;0.88;;;21.30;99.90;;;;;;5073027;28;20242;-78
2023/03/21 06:31:45;;;;;;;5.28;1.00;;;21.30;99.90;;;;;;5058720;28;20641;-77
2023/03/21 06:34:18;;;;;;;5.78;1.20;;;21.30;99.90;;;;;;5057866;28;20202;-77
2023/03/21 06:36:50;;;;;;;5.70;1.00;;;21.20;99.90;;;;;;5062611;28;20247;-77
2023/03/21 06:39:22;;;;;;;5.63;1.05;;;21.20;99.90;;;;;;5052366;28;20233;-78
2023/03/21 06:41:54;;;;;;;4.05;1.20;;;21.20;99.90;;;;;;5051942;28;20308;-78
2023/03/21 06:44:27;;;;;;;5.90;1.17;;;21.20;99.90;;;;;;5053096;28;20519;-77
2023/03/21 06:46:59;;;;;;;4.28;0.90;;;21.20;99.90;;;;;;5052407;28;20193;-77
2023/03/21 06:49:31;;;;;;;11.38;1.50;;;21.20;99.90;;;;;;5052792;28;20556;-77
2023/03/21 06:52:02;;;;;;;9.27;1.33;;;21.20;99.90;;;;;;5055341;28;20250;-78
2023/03/21 06:54:33;;;;;;;6.13;0.98;;;21.10;99.90;;;;;;5064015;28;20211;-78
2023/03/21 06:57:04;;;;;;;5.35;0.95;;;21.10;99.90;;;;;;5063369;28;20225;-77
2023/03/21 06:59:37;;;;;;;7.22;1.15;;;21.10;99.90;;;;;;5064055;28;20193;-77
2023/03/21 07:02:08;;;;;;;6.72;1.10;;;21.00;99.90;;;;;;5072774;28;20564;-78
2023/03/21 07:04:40;;;;;;;6.50;0.90;;;21.00;99.90;;;;;;5070406;28;20196;-77
2023/03/21 07:07:11;;;;;;;4.82;0.90;;;21.00;99.90;;;;;;5075532;28;20213;-78
2023/03/21 07:09:42;;;;;;;8.98;1.05;;;21.00;99.90;;;;;;5068288;28;20279;-78
2023/03/21 07:12:13;;;;;;;8.00;1.15;;;21.00;99.90;;;;;;5075659;28;20197;-78
2023/03/21 07:14:46;;;;;;;8.85;1.30;;;21.00;99.90;;;;;;5063816;28;20189;-77
2023/03/21 07:17:17;;;;;;;6.75;1.20;;;20.90;99.90;;;;;;5071585;28;20219;-78
2023/03/21 07:19:48;;;;;;;5.22;1.13;;;21.00;99.90;;;;;;5055517;28;20208;-77
2023/03/21 07:22:21;;;;;;;3.65;0.82;;;20.90;99.90;;;;;;5073000;28;20204;-77
2023/03/21 07:24:52;;;;;;;8.05;1.20;;;20.90;99.90;;;;;;5074010;28;20682;-78
2023/03/21 07:27:23;;;;;;;3.30;0.70;;;20.90;99.90;;;;;;5062875;28;20209;-78
2023/03/21 07:29:56;;;;;;;5.85;1.27;;;20.90;99.90;;;;;;5062360;28;20203;-78
2023/03/21 07:32:29;;;;;;;5.03;0.90;;;20.90;99.90;;;;;;5066729;28;20194;-77
2023/03/21 07:35:00;;;;;;;6.63;0.90;;;20.90;99.90;;;;;;5061018;28;20205;-77
2023/03/21 07:37:32;;;;;;;4.32;0.80;;;20.90;99.90;;;;;;5074929;28;20236;-78
2023/03/21 07:40:08;;;;;;;8.05;1.30;;;20.90;99.90;;;;;;5073727;28;20555;-77
2023/03/21 07:42:40;;;;;;;5.22;0.65;;;20.90;99.90;;;;;;5063194;28;20578;-77
2023/03/21 07:45:19;;;;;;;3.05;0.70;;;20.90;99.90;;;;;;5059089;28;20193;-77
2023/03/21 07:47:51;;;;;;;5.47;0.73;;;20.90;99.90;;;;;;5058545;28;20206;-77
2023/03/21 07:50:22;;;;;;;6.95;1.02;;;20.90;99.90;;;;;;5063578;28;20193;-78
2023/03/21 07:52:53;;;;;;;6.50;1.13;;;20.90;99.90;;;;;;5070058;28;20197;-78
2023/03/21 07:55:24;;;;;;;5.13;1.10;;;20.90;99.90;;;;;;5074915;28;20210;-78
2023/03/21 07:57:56;;;;;;;5.35;1.23;;;20.90;99.90;;;;;;5068850;28;20219;-77
2023/03/21 08:00:29;;;;;;;8.55;1.00;;;20.90;99.90;;;;;;5068746;28;20235;-77
2023/03/21 08:03:01;;;;;;;6.38;1.05;;;20.80;99.90;;;;;;5056318;28;20204;-77
2023/03/21 08:05:35;;;;;;;4.60;0.90;;;20.80;99.90;;;;;;5063755;28;20201;-77
2023/03/21 08:08:07;;;;;;;8.00;1.00;;;20.80;99.90;;;;;;5061480;28;20204;-78
2023/03/21 08:10:38;;;;;;;5.90;1.00;;;20.70;99.90;;;;;;5069561;28;20196;-77
2023/03/21 08:13:09;;;;;;;5.40;0.90;;;20.70;99.90;;;;;;5062763;28;20197;-78
2023/03/21 08:15:43;;;;;;;4.80;1.10;;;20.70;99.90;;;;;;5074582;28;20201;-77
2023/03/21 08:18:14;;;;;;;7.45;1.05;;;20.70;99.90;;;;;;5073742;28;20216;-78
2023/03/21 08:20:45;;;;;;;8.75;1.30;;;20.70;99.90;;;;;;5074484;28;20211;-78
2023/03/21 08:23:16;;;;;;;5.00;0.98;;;20.60;99.90;;;;;;5061022;28;20199;-78
2023/03/21 08:25:47;;;;;;;6.85;1.75;;;20.60;99.90;;;;;;5073826;28;20641;-77
2023/03/21 08:28:19;;;;;;;5.40;1.20;;;20.60;99.90;;;;;;5071383;28;20656;-77
2023/03/21 08:30:52;;;;;;;4.13;1.10;;;20.60;99.90;;;;;;5071218;28;20197;-78
2023/03/21 08:33:23;;;;;;;9.98;1.23;;;20.60;99.90;;;;;;5065810;28;20193;-77
2023/03/21 08:35:54;;;;;;;4.97;1.10;;;20.60;99.90;;;;;;5063840;28;20201;-77
2023/03/21 08:38:28;;;;;;;5.88;1.10;;;20.60;99.90;;;;;;5071626;28;20246;-78
2023/03/21 08:40:59;;;;;;;6.78;1.10;;;20.60;99.90;;;;;;5071588;28;20664;-77
2023/03/21 08:43:31;;;;;;;5.53;0.88;;;20.60;99.90;;;;;;5070737;28;20203;-77
2023/03/21 08:46:04;;;;;;;6.20;1.20;;;20.50;99.90;;;;;;5062362;28;20211;-77
2023/03/21 08:48:37;;;;;;;8.15;1.08;;;20.50;99.90;;;;;;5071758;28;20606;-77
2023/03/21 08:51:08;;;;;;;5.57;1.23;;;20.60;99.90;;;;;;5064672;28;20240;-77
2023/03/21 08:53:40;;;;;;;4.78;0.90;;;20.50;99.90;;;;;;5074097;28;20201;-78
2023/03/21 08:56:12;;;;;;;4.88;1.10;;;20.60;99.90;;;;;;5070011;28;20602;-78
2023/03/21 08:58:43;;;;;;;2.92;0.95;;;20.50;99.90;;;;;;5065958;28;20595;-77
2023/03/21 09:01:16;;;;;;;5.38;1.42;;;20.50;99.90;;;;;;5069414;28;20195;-77
2023/03/21 09:03:47;;;;;;;2.25;0.80;;;20.50;99.90;;;;;;5062287;28;20193;-77
2023/03/21 09:06:18;;;;;;;4.97;1.10;;;20.50;99.90;;;;;;5060415;28;20204;-77
2023/03/21 09:08:51;;;;;;;5.07;0.93;;;20.50;99.90;;;;;;5059844;28;20189;-78
2023/03/21 09:11:22;;;;;;;4.07;0.80;;;20.50;99.90;;;;;;5059592;28;20194;-78
2023/03/21 09:13:53;;;;;;;4.80;0.93;;;20.50;99.90;;;;;;5065287;28;20201;-77
2023/03/21 09:16:28;;;;;;;6.28;0.90;;;20.50;99.90;;;;;;5063928;28;20193;-77
2023/03/21 09:18:59;;;;;;;3.92;0.95;;;20.50;99.90;;;;;;5052818;28;20223;-78
2023/03/21 09:21:30;;;;;;;3.63;0.80;;;20.60;99.90;;;;;;5061776;28;20196;-78
2023/03/21 09:24:05;;;;;;;2.20;0.80;;;20.50;99.90;;;;;;5067431;28;20201;-77
2023/03/21 09:26:36;;;;;;;4.95;1.00;;;20.50;99.90;;;;;;5069830;28;20192;-77
2023/03/21 09:29:07;;;;;;;2.80;0.90;;;20.50;99.90;;;;;;5066707;28;20203;-78
2023/03/21 09:31:42;;;;;;;6.43;1.00;;;20.50;99.90;;;;;;5062382;28;20703;-78
2023/03/21 09:34:14;;;;;;;6.03;0.85;;;20.50;99.90;;;;;;5057539;28;20196;-77
2023/03/21 09:36:47;;;;;;;4.03;0.93;;;20.50;99.90;;;;;;5065080;28;20700;-77
2023/03/21 09:39:18;;;;;;;3.55;0.68;;;20.50;99.90;;;;;;5068595;28;20670;-77
2023/03/21 09:42:00;;;;;;;3.17;0.73;;;20.50;99.90;;;;;;5071300;28;20552;-77
2023/03/21 09:44:44;;;;;;;3.30;0.90;;;20.50;99.90;;;;;;5059375;28;20207;-78
2023/03/21 09:47:27;;;;;;;4.43;0.70;;;20.50;99.90;;;;;;5064925;28;20675;-78
2023/03/21 09:50:03;;;;;;;2.90;0.68;;;20.50;99.90;;;;;;5060463;28;20575;-77
2023/03/21 09:52:46;;;;;;;3.45;0.90;;;20.50;99.90;;;;;;5065323;28;20193;-78
2023/03/21 09:55:21;;;;;;;2.78;0.57;;;20.50;99.90;;;;;;5065915;28;20297;-78
2023/03/21 09:57:58;;;;;;;3.20;0.75;;;20.50;99.90;;;;;;5062858;28;20231;-78
2023/03/21 10:00:36;;;;;;;2.60;0.70;;;20.50;99.90;;;;;;5066479;28;20189;-77
2023/03/21 10:03:16;;;;;;;3.58;0.90;;;20.50;99.90;;;;;;5071127;28;20648;-78
2023/03/21 10:05:49;;;;;;;1.95;0.65;;;20.50;99.90;;;;;;5061729;28;20200;-78
2023/03/21 10:08:26;;;;;;;5.63;1.13;;;20.50;99.90;;;;;;5071082;28;20254;-78
2023/03/21 10:11:00;;;;;;;3.08;0.70;;;20.50;99.90;;;;;;5053272;28;20688;-78
2023/03/21 10:13:34;;;;;;;6.20;0.90;;;20.50;99.90;;;;;;5067717;28;20207;-78
2023/03/21 10:16:15;;;;;;;6.20;1.25;;;20.50;99.90;;;;;;5063642;28;20205;-78
2023/03/21 10:18:50;;;;;;;4.55;1.02;;;20.50;99.90;;;;;;5069475;28;20256;-79
2023/03/21 10:21:24;;;;;;;6.18;0.93;;;20.50;99.90;;;;;;5060802;28;20208;-78
2023/03/21 10:23:57;;;;;;;3.17;0.73;;;20.50;99.90;;;;;;5063831;28;20555;-78
2023/03/21 10:26:30;;;;;;;3.15;0.75;;;20.50;99.90;;;;;;5068107;28;20197;-78
2023/03/21 10:29:03;;;;;;;3.03;0.75;;;20.50;99.90;;;;;;5064735;28;20674;-78
2023/03/21 10:31:35;;;;;;;3.40;0.70;;;20.50;99.90;;;;;;5071785;28;20200;-77
2023/03/21 10:34:12;;;;;;;3.15;0.70;;;20.50;99.90;;;;;;5072216;28;20644;-78
2023/03/21 10:36:43;;;;;;;2.78;0.80;;;20.50;99.90;;;;;;5059110;28;20596;-77
2023/03/21 10:39:24;;;;;;;3.78;0.80;;;20.50;99.90;;;;;;5068450;28;20239;-78
2023/03/21 10:41:57;;;;;;;2.95;0.80;;;20.50;99.90;;;;;;5076404;28;20254;-78
2023/03/21 10:44:33;;;;;;;1.85;0.70;;;20.50;99.90;;;;;;5063113;28;20200;-77
2023/03/21 10:47:08;;;;;;;2.92;0.70;;;20.50;99.90;;;;;;5074747;28;20204;-78
2023/03/21 10:49:43;;;;;;;4.43;0.80;;;20.50;99.90;;;;;;5073244;28;20204;-78
2023/03/21 10:52:16;;;;;;;4.95;0.98;;;20.50;99.90;;;;;;5074363;28;20201;-78
2023/03/21 10:54:49;;;;;;;4.35;0.80;;;20.50;99.90;;;;;;5075891;28;20200;-78
2023/03/21 10:57:24;;;;;;;2.08;0.60;;;20.50;99.90;;;;;;5065547;28;20193;-78
2023/03/21 10:59:58;;;;;;;4.18;0.90;;;20.50;99.90;;;;;;5075081;28;20231;-78
2023/03/21 11:02:32;;;;;;;5.80;0.90;;;20.50;99.90;;;;;;5070238;28;20655;-79
2023/03/21 11:05:07;;;;;;;4.80;0.70;;;20.50;99.90;;;;;;5064096;28;20210;-79
2023/03/21 11:07:40;;;;;;;6.47;1.00;;;20.50;99.90;;;;;;5065558;28;20190;-78
2023/03/21 11:10:17;;;;;;;3.30;0.57;;;20.50;99.90;;;;;;5061612;28;20648;-78
2023/03/21 11:12:51;;;;;;;4.90;0.68;;;20.50;99.90;;;;;;5067322;28;20212;-77
2023/03/21 11:15:32;;;;;;;4.70;0.63;;;20.50;99.90;;;;;;5067289;28;20664;-78
2023/03/21 11:18:16;;;;;;;2.03;0.70;;;20.50;99.90;;;;;;5073887;28;20224;-78
2023/03/21 11:20:53;;;;;;;2.30;0.68;;;20.50;99.90;;;;;;5065340;28;20603;-78
2023/03/21 11:23:28;;;;;;;4.28;0.63;;;20.40;99.90;;;;;;5056943;28;20672;-78
2023/03/21 11:26:01;;;;;;;1.67;0.47;;;20.40;99.90;;;;;;5056537;28;20628;-78
2023/03/21 11:28:39;;;;;;;4.68;0.70;;;20.40;99.90;;;;;;5060569;28;20206;-78
2023/03/21 11:31:11;;;;;;;3.92;0.60;;;20.40;99.90;;;;;;5060596;28;20200;-77
2023/03/21 11:33:44;;;;;;;3.90;0.68;;;20.40;99.90;;;;;;5061973;28;20201;-78
2023/03/21 11:36:40;;;;;;;3.97;0.77;;;20.40;99.90;;;;;;5064937;28;20696;-79
2023/03/21 11:39:29;;;;;;;3.95;0.90;;;20.40;99.90;;;;;;5074602;28;20251;-78
2023/03/21 11:42:00;;;;;;;4.20;0.60;;;20.40;99.90;;;;;;5066826;28;20663;-78
2023/03/21 11:44:34;;;;;;;4.93;0.82;;;20.30;99.90;;;;;;5073828;28;20648;-77
2023/03/21 11:47:05;;;;;;;3.60;0.82;;;20.30;99.90;;;;;;5075395;28;20242;-78
2023/03/21 11:49:36;;;;;;;2.45;0.60;;;20.30;99.90;;;;;;5075327;28;20192;-78
2023/03/21 11:52:19;;;;;;;2.88;0.52;;;20.30;99.90;;;;;;5075341;28;20243;-77
2023/03/21 11:55:11;;;;;;;3.13;0.70;;;20.30;99.90;;;;;;5065766;28;20193;-78
2023/03/21 11:57:52;;;;;;;2.53;0.75;;;20.30;99.90;;;;;;5056022;28;20193;-78
2023/03/21 12:00:28;;;;;;;3.83;0.70;;;20.30;99.90;;;;;;5075028;28;20193;-78
2023/03/21 12:03:30;;;;;;;2.05;0.60;;;20.30;99.90;;;;;;5075070;28;20211;-78
2023/03/21 12:06:04;;;;;;;4.80;0.65;;;20.30;99.90;;;;;;5075304;28;20195;-77
2023/03/21 12:08:48;;;;;;;2.58;0.73;;;20.30;99.90;;;;;;5074225;28;20197;-78
2023/03/21 12:11:27;;;;;;;3.33;0.70;;;20.30;99.90;;;;;;5054891;28;20190;-78
2023/03/21 12:14:06;;;;;;;3.45;0.60;;;20.20;99.90;;;;;;5069337;28;20197;-78
2023/03/21 12:16:58;;;;;;;4.07;0.80;;;20.20;99.90;;;;;;5073913;28;20193;-79
2023/03/21 12:19:55;;;;;;;2.05;0.60;;;20.20;99.90;;;;;;5073271;28;20231;-78
2023/03/21 12:22:34;;;;;;;1.40;0.60;;;20.20;99.90;;;;;;5057641;28;20197;-79
2023/03/21 12:25:12;;;;;;;2.15;0.70;;;20.20;99.90;;;;;;5067744;28;20199;-78
2023/03/21 12:27:50;;;;;;;3.95;0.50;;;20.10;99.90;;;;;;5073977;28;20185;-78
2023/03/21 12:30:33;;;;;;;3.80;0.68;;;20.20;99.90;;;;;;5056747;28;20204;-78
2023/03/21 12:33:26;;;;;;;3.30;0.80;;;20.10;99.90;;;;;;5055425;28;20653;-77
2023/03/21 12:36:26;;;;;;;2.97;0.80;;;20.00;99.90;;;;;;5057769;28;20225;-78
2023/03/21 12:39:05;;;;;;;3.22;0.70;;;20.00;99.90;;;;;;5058470;28;20241;-77
2023/03/21 12:41:44;;;;;;;2.67;0.98;;;20.00;99.90;;;;;;5068377;28;20197;-77
2023/03/21 12:44:17;;;;;;;1.77;0.70;;;19.90;99.90;;;;;;5056952;28;20208;-77
2023/03/21 12:46:52;;;;;;;2.53;0.73;;;19.90;99.90;;;;;;5059826;28;20194;-77
2023/03/21 12:49:29;;;;;;;4.40;0.65;;;19.90;99.90;;;;;;5074314;28;20208;-77
2023/03/21 12:52:05;;;;;;;5.05;0.60;;;20.00;99.90;;;;;;5058349;28;20205;-77
2023/03/21 12:54:39;;;;;;;2.03;0.80;;;20.00;99.90;;;;;;5054232;28;20644;-77
2023/03/21 12:57:20;;;;;;;5.93;0.80;;;20.00;99.90;;;;;;5060286;28;20192;-77
2023/03/21 12:59:57;;;;;;;2.33;0.50;;;20.00;99.90;;;;;;5067296;28;20259;-77
2023/03/21 13:02:33;;;;;;;2.45;0.60;;;20.00;99.90;;;;;;5059892;28;20656;-77
2023/03/21 13:05:15;;;;;;;2.95;0.90;;;19.90;99.90;;;;;;5056111;28;20201;-77
2023/03/21 13:07:49;;;;;;;6.47;0.95;;;19.90;99.90;;;;;;5066628;28;20207;-77
2023/03/21 13:10:22;;;;;;;4.22;1.13;;;19.90;99.90;;;;;;5054340;28;20190;-77
2023/03/21 13:13:09;;;;;;;2.58;0.70;;;19.90;99.90;;;;;;5062224;28;20289;-77
2023/03/21 13:15:56;;;;;;;6.50;0.90;;;19.90;99.90;;;;;;5058786;28;20290;-77
2023/03/21 13:18:43;;;;;;;2.05;0.70;;;19.90;99.90;;;;;;5063860;28;20649;-76
2023/03/21 13:21:19;;;;;;;3.00;0.77;;;19.90;99.90;;;;;;5053547;28;20197;-78
2023/03/21 13:24:03;;;;;;;4.07;1.00;;;19.90;99.90;;;;;;5065541;28;20280;-77
2023/03/21 13:26:48;;;;;;;2.78;0.90;;;19.90;99.90;;;;;;5073012;28;20181;-77
2023/03/21 13:29:29;;;;;;;3.67;0.70;;;19.90;99.90;;;;;;5064028;28;20196;-77